Time;durP1;ratioP1;P1;durP2;ratioP2;P2;SDS_P1;SDS_P2;PMS_P1;PMS_P2;Temp;Humidity;BMP_temperature;BMP_pressure;BME280_temperature;BME280_humidity;BME280_pressure;Samples;Min_cycle;Max_cycle;Signal;HPM_P1;HPM_P2
2021/10/11 00:01:51;;;;;;;33.42;13.30;;;;;;;0.66;86.57;102451.44;5064571;28;20036;-56
2021/10/11 00:04:16;;;;;;;30.02;12.82;;;;;;;0.55;86.05;102444.53;5066112;28;20027;-56
2021/10/11 00:06:41;;;;;;;26.88;13.25;;;;;;;0.45;85.44;102445.50;5064317;28;20368;-56
2021/10/11 00:09:07;;;;;;;29.00;13.10;;;;;;;0.45;85.20;102448.97;5065301;28;20121;-56
2021/10/11 00:11:33;;;;;;;28.77;13.30;;;;;;;0.43;84.38;102450.06;5062436;28;20028;-56
2021/10/11 00:13:58;;;;;;;28.30;13.38;;;;;;;0.32;84.86;102450.22;5063850;28;20025;-56
2021/10/11 00:16:24;;;;;;;34.85;14.70;;;;;;;0.35;84.56;102448.13;5064879;28;20035;-57
2021/10/11 00:18:50;;;;;;;25.02;13.18;;;;;;;0.34;85.33;102441.19;5066321;28;20038;-57
2021/10/11 00:21:16;;;;;;;25.15;13.85;;;;;;;0.33;85.78;102443.97;5062793;28;20052;-55
2021/10/11 00:23:42;;;;;;;26.98;13.82;;;;;;;0.35;86.01;102444.66;5066076;28;20020;-57
2021/10/11 00:26:08;;;;;;;28.17;14.38;;;;;;;0.35;85.08;102426.19;5066064;28;20074;-56
2021/10/11 00:28:33;;;;;;;27.15;13.27;;;;;;;0.41;84.25;102429.13;5065843;28;20594;-57
2021/10/11 00:30:59;;;;;;;24.20;13.55;;;;;;;0.49;83.06;102420.50;5065239;28;20624;-56
2021/10/11 00:33:24;;;;;;;26.58;13.60;;;;;;;0.52;82.93;102412.31;5063373;28;20137;-57
2021/10/11 00:35:50;;;;;;;30.98;14.38;;;;;;;0.58;82.82;102406.47;5064559;28;20028;-57
2021/10/11 00:38:15;;;;;;;27.73;13.55;;;;;;;0.57;83.04;102415.38;5064768;28;20020;-57
2021/10/11 00:40:40;;;;;;;35.13;14.52;;;;;;;0.45;83.19;102419.97;5063935;28;20114;-56
2021/10/11 00:43:06;;;;;;;32.38;14.15;;;;;;;0.37;84.59;102424.28;5064149;28;20025;-56
2021/10/11 00:45:32;;;;;;;32.17;15.18;;;;;;;0.33;85.40;102420.25;5062798;28;20402;-55
2021/10/11 00:47:57;;;;;;;33.08;15.00;;;;;;;0.23;87.10;102421.09;5063861;28;20031;-56
2021/10/11 00:50:23;;;;;;;24.83;13.82;;;;;;;0.29;87.23;102411.78;5061802;28;20039;-56
2021/10/11 00:52:48;;;;;;;31.63;14.85;;;;;;;0.19;90.50;102417.06;5062784;28;20028;-57
2021/10/11 00:55:14;;;;;;;32.00;15.27;;;;;;;0.22;88.67;102408.88;5065872;28;20029;-57
2021/10/11 00:57:39;;;;;;;28.80;14.32;;;;;;;0.17;88.17;102404.97;5065228;28;20229;-57
2021/10/11 01:00:06;;;;;;;26.67;13.48;;;;;;;0.09;87.05;102400.41;5066591;28;20398;-55
2021/10/11 01:02:32;;;;;;;26.42;13.85;;;;;;;0.02;86.25;102401.13;5065157;28;20029;-56
2021/10/11 01:04:57;;;;;;;28.83;13.10;;;;;;;0.00;86.43;102396.00;5061793;28;20768;-57
2021/10/11 01:07:23;;;;;;;30.40;12.98;;;;;;;-0.04;86.77;102394.59;5062490;28;20449;-57
2021/10/11 01:09:48;;;;;;;28.67;13.73;;;;;;;-0.08;86.91;102386.13;5065792;28;20032;-56
2021/10/11 01:12:14;;;;;;;28.58;14.50;;;;;;;-0.05;86.71;102388.47;5063227;28;20028;-56
2021/10/11 01:14:40;;;;;;;27.30;13.68;;;;;;;-0.03;86.71;102388.34;5060510;28;20032;-57
2021/10/11 01:17:06;;;;;;;31.45;13.32;;;;;;;-0.06;86.52;102380.72;5064668;28;20024;-56
2021/10/11 01:19:31;;;;;;;30.92;13.73;;;;;;;-0.04;85.28;102368.22;5060855;28;20096;-57
2021/10/11 01:21:57;;;;;;;29.65;14.27;;;;;;;-0.07;86.03;102366.72;5066639;28;20035;-57
2021/10/11 01:24:22;;;;;;;30.58;15.27;;;;;;;-0.06;86.33;102362.28;5059510;28;20107;-57
2021/10/11 01:26:48;;;;;;;31.67;14.30;;;;;;;-0.05;86.07;102359.50;5060017;28;20032;-57
2021/10/11 01:29:15;;;;;;;29.15;13.85;;;;;;;-0.01;86.23;102360.88;5065893;28;20077;-57
2021/10/11 01:31:42;;;;;;;32.00;14.95;;;;;;;-0.05;86.77;102354.22;5061657;28;20121;-57
2021/10/11 01:34:09;;;;;;;31.02;13.57;;;;;;;0.01;86.06;102344.94;5060553;28;20048;-56
2021/10/11 01:36:35;;;;;;;33.22;13.65;;;;;;;0.04;85.81;102334.13;5062933;28;20036;-57
2021/10/11 01:39:04;;;;;;;34.20;14.23;;;;;;;0.06;86.27;102336.63;5063024;28;20101;-57
2021/10/11 01:41:29;;;;;;;28.65;13.93;;;;;;;0.10;85.82;102327.44;5061887;28;20029;-57
2021/10/11 01:43:55;;;;;;;25.35;13.38;;;;;;;0.08;85.15;102313.59;5064294;28;20032;-57
2021/10/11 01:46:21;;;;;;;30.65;13.80;;;;;;;0.08;85.87;102309.16;5065511;28;20107;-55
2021/10/11 01:48:46;;;;;;;26.83;13.05;;;;;;;0.08;85.62;102297.78;5057539;28;20373;-56
2021/10/11 01:51:12;;;;;;;24.92;13.27;;;;;;;0.15;85.84;102293.59;5061966;28;20024;-57
2021/10/11 01:53:38;;;;;;;32.40;15.55;;;;;;;0.22;85.52;102295.53;5064129;28;20428;-57
2021/10/11 01:56:04;;;;;;;27.55;14.35;;;;;;;0.28;88.28;102294.94;5059728;28;20476;-56
2021/10/11 01:58:29;;;;;;;32.25;14.00;;;;;;;0.46;88.59;102287.13;5064449;28;20184;-57
2021/10/11 02:00:56;;;;;;;26.23;14.05;;;;;;;0.55;88.48;102290.72;5064498;28;20063;-57
2021/10/11 02:03:21;;;;;;;28.15;14.82;;;;;;;0.63;87.86;102289.97;5062054;28;20030;-57
2021/10/11 02:05:47;;;;;;;28.50;14.07;;;;;;;0.70;87.49;102289.25;5060022;28;20115;-57
2021/10/11 02:08:12;;;;;;;26.77;13.38;;;;;;;0.76;86.41;102285.22;5062478;28;20024;-57
2021/10/11 02:10:38;;;;;;;31.48;14.07;;;;;;;0.75;86.29;102283.56;5060047;28;20033;-57
2021/10/11 02:13:03;;;;;;;26.40;13.13;;;;;;;0.83;85.02;102270.44;5063400;28;20033;-56
2021/10/11 02:15:29;;;;;;;27.08;13.30;;;;;;;0.85;84.98;102261.41;5061697;28;20048;-57
2021/10/11 02:17:56;;;;;;;30.20;13.65;;;;;;;0.94;83.86;102256.22;5065536;28;20024;-57
2021/10/11 02:20:22;;;;;;;30.10;14.77;;;;;;;0.93;85.89;102263.31;5061493;28;20206;-57
2021/10/11 02:22:48;;;;;;;27.90;12.88;;;;;;;0.99;86.10;102264.53;5063661;28;20118;-57
2021/10/11 02:25:14;;;;;;;28.73;13.02;;;;;;;0.96;89.82;102268.31;5066818;28;20033;-57
2021/10/11 02:27:40;;;;;;;28.92;13.48;;;;;;;1.01;91.09;102263.41;5066822;28;20370;-57
2021/10/11 02:30:07;;;;;;;26.52;12.95;;;;;;;1.13;89.60;102253.47;5069318;28;20439;-56
2021/10/11 02:32:33;;;;;;;26.35;12.85;;;;;;;1.18;88.20;102251.22;5068059;28;20025;-58
2021/10/11 02:34:58;;;;;;;26.17;12.85;;;;;;;1.25;88.51;102260.19;5063283;28;20115;-57
2021/10/11 02:37:24;;;;;;;27.83;12.88;;;;;;;1.23;90.12;102264.78;5069729;28;20040;-57
2021/10/11 02:39:56;;;;;;;23.40;12.00;;;;;;;1.30;89.83;102260.56;5063983;28;20370;-57
2021/10/11 02:42:22;;;;;;;24.33;12.82;;;;;;;1.40;89.00;102258.69;5068105;28;20025;-57
2021/10/11 02:44:48;;;;;;;24.48;12.15;;;;;;;1.42;88.50;102253.25;5066774;28;20028;-57
2021/10/11 02:47:14;;;;;;;35.50;14.65;;;;;;;1.47;88.50;102256.28;5062739;28;20043;-56
2021/10/11 02:49:40;;;;;;;25.77;12.65;;;;;;;1.52;87.57;102248.72;5067820;28;20424;-57
2021/10/11 02:52:05;;;;;;;35.95;12.82;;;;;;;1.52;86.94;102236.34;5061438;28;20028;-57
2021/10/11 02:54:31;;;;;;;28.25;13.80;;;;;;;1.53;86.64;102239.81;5062144;28;20370;-57
2021/10/11 02:56:56;;;;;;;24.15;12.38;;;;;;;1.51;86.30;102231.22;5064657;28;20032;-57
2021/10/11 02:59:22;;;;;;;23.77;12.38;;;;;;;1.52;85.74;102231.06;5058246;28;20032;-57
2021/10/11 03:01:48;;;;;;;29.45;13.38;;;;;;;1.47;86.65;102221.94;5063853;28;20119;-57
2021/10/11 03:04:13;;;;;;;25.40;13.07;;;;;;;1.49;85.74;102215.53;5061273;28;20033;-57
2021/10/11 03:06:40;;;;;;;26.13;13.65;;;;;;;1.44;86.45;102223.09;5061794;28;20379;-57
2021/10/11 03:09:05;;;;;;;25.10;12.82;;;;;;;1.43;86.73;102216.13;5066021;28;20503;-57
2021/10/11 03:11:31;;;;;;;27.50;13.63;;;;;;;1.43;86.16;102218.75;5060438;28;20020;-57
2021/10/11 03:13:56;;;;;;;28.95;13.43;;;;;;;1.45;86.10;102213.34;5064378;28;20485;-57
2021/10/11 03:16:22;;;;;;;27.00;13.02;;;;;;;1.51;85.43;102210.91;5067579;28;20157;-57
2021/10/11 03:18:48;;;;;;;26.05;12.88;;;;;;;1.54;85.42;102207.13;5067612;28;20029;-57
2021/10/11 03:21:17;;;;;;;26.20;13.40;;;;;;;1.58;84.99;102192.63;5066574;28;20064;-57
2021/10/11 03:23:44;;;;;;;23.05;12.55;;;;;;;1.61;84.43;102197.59;5059903;28;20028;-57
2021/10/11 03:26:09;;;;;;;25.98;12.90;;;;;;;1.63;84.15;102193.03;5063424;28;20021;-57
2021/10/11 03:28:35;;;;;;;29.00;13.25;;;;;;;1.65;84.37;102195.50;5066273;28;20032;-56
2021/10/11 03:31:00;;;;;;;22.33;12.43;;;;;;;1.64;84.19;102196.50;5065561;28;20028;-57
2021/10/11 03:33:27;;;;;;;27.77;13.75;;;;;;;1.63;85.00;102197.47;5065285;28;20021;-57
2021/10/11 03:35:52;;;;;;;24.65;12.60;;;;;;;1.65;85.04;102188.41;5068217;28;20024;-57
2021/10/11 03:38:18;;;;;;;26.00;13.35;;;;;;;1.59;86.82;102190.81;5061537;28;20121;-56
2021/10/11 03:40:43;;;;;;;26.95;13.93;;;;;;;1.61;86.00;102194.97;5060925;28;20024;-57
2021/10/11 03:43:09;;;;;;;26.75;12.98;;;;;;;1.68;86.52;102193.38;5066852;28;20027;-57
2021/10/11 03:45:34;;;;;;;25.70;12.73;;;;;;;1.74;85.67;102190.09;5066548;28;20520;-57
2021/10/11 03:47:59;;;;;;;26.08;13.50;;;;;;;1.76;85.20;102182.03;5060696;28;20032;-57
2021/10/11 03:50:25;;;;;;;25.70;13.57;;;;;;;1.72;85.26;102189.44;5065551;28;20190;-57
2021/10/11 03:52:50;;;;;;;26.30;13.90;;;;;;;1.67;86.58;102177.69;5057064;28;20115;-57
2021/10/11 03:55:16;;;;;;;25.08;13.52;;;;;;;1.59;88.46;102174.97;5066973;28;20029;-57
2021/10/11 03:57:41;;;;;;;25.67;14.13;;;;;;;1.61;89.13;102179.09;5066270;28;20101;-57
2021/10/11 04:00:07;;;;;;;28.33;14.18;;;;;;;1.64;89.60;102183.28;5063062;28;20493;-57
2021/10/11 04:02:33;;;;;;;24.13;12.10;;;;;;;1.70;88.59;102175.56;5060666;28;20025;-57
2021/10/11 04:04:59;;;;;;;29.88;13.15;;;;;;;1.78;88.23;102180.88;5062236;28;20082;-57
2021/10/11 04:07:25;;;;;;;25.65;13.05;;;;;;;1.81;88.67;102175.31;5057855;28;20040;-56
2021/10/11 04:09:50;;;;;;;21.17;12.50;;;;;;;1.96;87.15;102172.88;5061367;28;20413;-57
2021/10/11 04:12:28;;;;;;;26.35;12.48;;;;;;;2.05;85.95;102171.97;5066728;28;20050;-57
2021/10/11 04:14:54;;;;;;;28.00;12.60;;;;;;;2.10;85.35;102164.38;5065290;28;20467;-57
2021/10/11 04:17:19;;;;;;;24.75;13.43;;;;;;;2.10;85.97;102169.66;5060277;28;20024;-57
2021/10/11 04:19:45;;;;;;;22.50;11.90;;;;;;;2.15;85.76;102166.53;5059512;28;20079;-57
2021/10/11 04:22:10;;;;;;;24.65;11.50;;;;;;;2.22;84.99;102161.47;5065700;28;20024;-56
2021/10/11 04:24:38;;;;;;;22.98;12.02;;;;;;;2.25;84.72;102167.25;5056776;28;20025;-56
2021/10/11 04:27:03;;;;;;;22.30;12.10;;;;;;;2.29;84.48;102173.06;5057496;28;20025;-57
2021/10/11 04:29:29;;;;;;;25.10;12.82;;;;;;;2.27;85.00;102172.41;5056692;28;20043;-57
2021/10/11 04:31:54;;;;;;;19.92;11.13;;;;;;;2.27;85.59;102164.47;5058357;28;20024;-57
2021/10/11 04:34:19;;;;;;;25.08;13.38;;;;;;;2.29;85.57;102158.03;5065430;28;20484;-57
2021/10/11 04:36:45;;;;;;;22.90;12.00;;;;;;;2.18;87.29;102157.50;5059020;28;20293;-56
2021/10/11 04:39:10;;;;;;;26.90;13.05;;;;;;;2.18;87.56;102160.13;5066157;28;20024;-56
2021/10/11 04:41:36;;;;;;;22.95;12.82;;;;;;;2.20;87.13;102152.88;5058744;28;20170;-56
2021/10/11 04:44:02;;;;;;;20.77;12.05;;;;;;;2.13;87.41;102150.84;5054245;28;20413;-57
2021/10/11 04:46:27;;;;;;;22.50;12.70;;;;;;;2.13;87.73;102147.38;5062226;28;20066;-57
2021/10/11 04:48:52;;;;;;;23.60;12.52;;;;;;;2.07;88.25;102153.31;5060801;28;20028;-57
2021/10/11 04:51:18;;;;;;;23.73;12.90;;;;;;;2.04;89.92;102141.22;5063230;28;20063;-57
2021/10/11 04:53:43;;;;;;;22.10;12.57;;;;;;;2.13;88.41;102134.97;5064335;28;20082;-57
2021/10/11 04:56:09;;;;;;;27.33;13.40;;;;;;;2.11;89.51;102126.38;5066962;28;20024;-57
2021/10/11 04:58:34;;;;;;;24.38;12.90;;;;;;;2.20;88.33;102126.44;5063630;28;20094;-57
2021/10/11 05:01:00;;;;;;;22.60;12.60;;;;;;;2.25;87.47;102124.13;5060371;28;20035;-56
2021/10/11 05:03:25;;;;;;;26.00;12.63;;;;;;;2.29;87.09;102128.09;5055279;28;20017;-57
2021/10/11 05:05:51;;;;;;;28.42;12.80;;;;;;;2.36;86.35;102122.03;5066429;28;20429;-57
2021/10/11 05:08:16;;;;;;;24.77;13.18;;;;;;;2.35;87.10;102124.84;5057967;28;20037;-56
2021/10/11 05:10:42;;;;;;;25.05;12.88;;;;;;;2.47;85.93;102112.13;5059061;28;20275;-56
2021/10/11 05:13:07;;;;;;;26.77;13.02;;;;;;;2.57;85.08;102108.34;5065865;28;20012;-55
2021/10/11 05:15:33;;;;;;;27.33;13.70;;;;;;;2.61;84.98;102098.28;5063214;28;20175;-57
2021/10/11 05:17:58;;;;;;;26.45;13.75;;;;;;;2.61;85.47;102093.81;5060226;28;20188;-56
2021/10/11 05:20:25;;;;;;;26.85;14.73;;;;;;;2.64;85.12;102092.66;5059071;28;20038;-57
2021/10/11 05:22:51;;;;;;;22.52;13.30;;;;;;;2.63;85.84;102097.13;5058083;28;20028;-56
2021/10/11 05:25:17;;;;;;;25.27;12.95;;;;;;;2.65;85.89;102099.59;5062394;28;20039;-57
2021/10/11 05:27:42;;;;;;;23.33;13.10;;;;;;;2.69;85.60;102100.91;5063004;28;20035;-57
2021/10/11 05:30:08;;;;;;;29.67;14.65;;;;;;;2.67;86.15;102109.03;5066679;28;20190;-57
2021/10/11 05:32:35;;;;;;;26.40;13.77;;;;;;;2.72;85.34;102117.31;5059665;28;20141;-57
2021/10/11 05:35:02;;;;;;;25.33;12.90;;;;;;;2.73;85.14;102118.16;5060857;28;20027;-57
2021/10/11 05:37:31;;;;;;;22.33;12.68;;;;;;;2.67;86.09;102114.31;5075941;28;20024;-57
2021/10/11 05:39:57;;;;;;;25.17;13.85;;;;;;;2.69;86.70;102117.66;5067815;28;20059;-57
2021/10/11 05:42:23;;;;;;;26.70;12.38;;;;;;;2.75;86.85;102120.63;5065801;28;20117;-57
2021/10/11 05:44:48;;;;;;;26.98;12.85;;;;;;;2.82;86.31;102116.31;5065406;28;20031;-57
2021/10/11 05:47:14;;;;;;;26.60;14.27;;;;;;;2.87;85.77;102132.53;5063529;28;20517;-55
2021/10/11 05:49:40;;;;;;;22.70;12.88;;;;;;;2.94;85.42;102138.84;5061286;28;20025;-57
2021/10/11 05:52:05;;;;;;;22.63;13.30;;;;;;;3.04;84.34;102129.75;5066046;28;20546;-57
2021/10/11 05:54:31;;;;;;;23.90;13.05;;;;;;;3.13;83.59;102125.28;5064574;28;20024;-56
2021/10/11 05:56:56;;;;;;;27.38;12.65;;;;;;;3.13;84.16;102125.28;5064236;28;20078;-57
2021/10/11 05:59:22;;;;;;;26.67;12.07;;;;;;;3.22;83.49;102118.16;5063058;28;20025;-57
2021/10/11 06:01:48;;;;;;;24.70;13.27;;;;;;;3.26;83.38;102115.03;5065939;28;20497;-56
2021/10/11 06:04:13;;;;;;;26.48;13.65;;;;;;;3.27;83.59;102108.75;5067267;28;20029;-56
2021/10/11 06:06:39;;;;;;;23.75;13.52;;;;;;;3.30;83.40;102118.19;5068731;28;20024;-57
2021/10/11 06:09:05;;;;;;;28.75;13.48;;;;;;;3.36;82.74;102120.16;5070022;28;20029;-54
2021/10/11 06:11:31;;;;;;;27.27;13.18;;;;;;;3.40;82.44;102129.41;5060193;28;20555;-57
2021/10/11 06:13:56;;;;;;;24.52;13.05;;;;;;;3.34;84.22;102124.78;5071401;28;20024;-57
2021/10/11 06:16:22;;;;;;;20.10;12.20;;;;;;;3.42;83.05;102119.50;5068189;28;20028;-56
2021/10/11 06:18:47;;;;;;;26.75;13.18;;;;;;;3.43;84.33;102125.63;5069491;28;20465;-57
2021/10/11 06:21:13;;;;;;;29.15;13.80;;;;;;;3.49;83.17;102122.28;5069288;28;20040;-54
2021/10/11 06:23:38;;;;;;;22.95;13.88;;;;;;;3.51;84.17;102120.31;5067657;28;20024;-57
2021/10/11 06:26:04;;;;;;;33.35;12.85;;;;;;;3.60;83.47;102124.59;5068806;28;20618;-56
2021/10/11 06:28:30;;;;;;;27.90;13.80;;;;;;;3.67;83.11;102130.88;5066434;28;20028;-57
2021/10/11 06:30:56;;;;;;;24.27;13.05;;;;;;;3.67;84.36;102125.56;5067534;28;20026;-57
2021/10/11 06:33:22;;;;;;;28.33;13.20;;;;;;;3.72;84.63;102131.19;5068948;28;20085;-55
2021/10/11 06:35:51;;;;;;;30.17;14.10;;;;;;;3.82;83.82;102131.00;5066993;28;20032;-54
2021/10/11 06:38:17;;;;;;;25.58;13.68;;;;;;;3.87;84.60;102132.16;5066692;28;20056;-57
2021/10/11 06:40:46;;;;;;;27.17;13.07;;;;;;;3.91;84.80;102130.81;5068446;28;20054;-57
2021/10/11 06:43:11;;;;;;;25.70;12.65;;;;;;;4.00;84.15;102133.44;5063664;28;20324;-57
2021/10/11 06:45:37;;;;;;;27.52;13.80;;;;;;;3.99;85.24;102137.94;5067133;28;20474;-57
2021/10/11 06:48:03;;;;;;;25.27;13.13;;;;;;;4.13;84.35;102141.66;5068242;28;20016;-57
2021/10/11 06:50:28;;;;;;;23.70;13.32;;;;;;;4.19;85.52;102133.88;5067352;28;20477;-55
2021/10/11 06:52:54;;;;;;;30.70;14.00;;;;;;;4.39;83.44;102139.59;5068533;28;20081;-56
2021/10/11 06:55:19;;;;;;;24.45;13.20;;;;;;;4.43;84.08;102135.56;5070043;28;20036;-57
2021/10/11 06:57:45;;;;;;;26.63;14.20;;;;;;;4.57;83.50;102135.84;5066998;28;20032;-56
2021/10/11 07:00:11;;;;;;;31.05;14.15;;;;;;;4.61;84.18;102129.19;5066533;28;20055;-57
2021/10/11 07:02:38;;;;;;;23.65;12.30;;;;;;;4.76;83.17;102135.41;5064051;28;20028;-57
2021/10/11 07:05:14;;;;;;;23.05;13.38;;;;;;;4.86;83.69;102133.34;5066330;28;20028;-56
2021/10/11 07:07:41;;;;;;;26.38;13.65;;;;;;;4.99;82.69;102125.59;5064395;28;20063;-57
2021/10/11 07:10:08;;;;;;;23.63;13.30;;;;;;;5.03;82.55;102115.47;5064307;28;20046;-56
2021/10/11 07:12:33;;;;;;;23.60;12.48;;;;;;;5.12;81.96;102119.69;5063106;28;20031;-56
2021/10/11 07:14:59;;;;;;;27.67;12.85;;;;;;;5.14;81.79;102117.69;5058773;28;20035;-56
2021/10/11 07:17:25;;;;;;;28.35;12.70;;;;;;;5.15;81.57;102124.66;5062868;28;20024;-57
2021/10/11 07:19:51;;;;;;;21.85;12.80;;;;;;;5.17;81.33;102133.25;5062701;28;20115;-57
2021/10/11 07:22:17;;;;;;;24.70;13.10;;;;;;;5.21;81.57;102134.59;5065927;28;20111;-57
2021/10/11 07:24:44;;;;;;;25.13;13.60;;;;;;;5.27;80.86;102148.97;5065753;28;20016;-56
2021/10/11 07:27:10;;;;;;;25.90;13.77;;;;;;;5.23;81.26;102147.69;5066196;28;20035;-57
2021/10/11 07:29:36;;;;;;;27.33;13.23;;;;;;;5.23;81.84;102153.84;5062357;28;20582;-57
2021/10/11 07:32:03;;;;;;;24.92;15.32;;;;;;;5.23;81.91;102147.69;5062639;28;20032;-57
2021/10/11 07:34:29;;;;;;;23.52;13.93;;;;;;;5.31;82.07;102142.28;5065980;28;20040;-57
2021/10/11 07:36:54;;;;;;;25.10;13.55;;;;;;;5.39;81.46;102139.59;5066319;28;20035;-57
2021/10/11 07:39:20;;;;;;;23.83;13.15;;;;;;;5.43;81.75;102140.88;5066865;28;20591;-57
2021/10/11 07:41:45;;;;;;;25.98;14.05;;;;;;;5.48;81.20;102143.81;5064147;28;20040;-57
2021/10/11 07:44:11;;;;;;;29.58;14.77;;;;;;;5.45;81.96;102133.53;5067272;28;20029;-56
2021/10/11 07:46:38;;;;;;;28.42;14.77;;;;;;;5.51;81.48;102134.63;5068139;28;20031;-57
2021/10/11 07:49:04;;;;;;;24.13;14.18;;;;;;;5.50;82.33;102136.47;5064624;28;20799;-56
2021/10/11 07:51:30;;;;;;;29.05;15.70;;;;;;;5.53;81.89;102138.75;5060821;28;20032;-57
2021/10/11 07:53:55;;;;;;;29.75;15.63;;;;;;;5.52;83.03;102139.78;5068211;28;20016;-57
2021/10/11 07:56:20;;;;;;;23.55;14.93;;;;;;;5.56;83.40;102141.06;5062966;28;20024;-56
2021/10/11 07:58:46;;;;;;;26.48;13.65;;;;;;;5.55;83.62;102143.91;5064497;28;20056;-57
2021/10/11 08:01:12;;;;;;;30.02;15.27;;;;;;;5.68;82.58;102154.75;5062166;28;20451;-55
2021/10/11 08:03:37;;;;;;;25.75;14.25;;;;;;;5.66;83.19;102157.59;5067283;28;20016;-56
2021/10/11 08:06:04;;;;;;;30.17;14.43;;;;;;;5.62;83.52;102158.97;5065132;28;20033;-57
2021/10/11 08:08:31;;;;;;;29.70;15.50;;;;;;;5.68;83.06;102157.41;5064725;28;20066;-56
2021/10/11 08:10:57;;;;;;;28.00;15.45;;;;;;;5.75;82.60;102153.84;5067983;28;20039;-57
2021/10/11 08:13:23;;;;;;;29.65;13.95;;;;;;;5.86;82.77;102154.41;5064664;28;20020;-57
2021/10/11 08:15:49;;;;;;;35.10;15.52;;;;;;;5.96;82.10;102149.69;5063568;28;20177;-56
2021/10/11 08:18:15;;;;;;;32.03;15.73;;;;;;;6.04;82.78;102152.22;5066764;28;20078;-56
2021/10/11 08:20:41;;;;;;;32.50;15.73;;;;;;;6.17;82.09;102155.09;5065683;28;20406;-56
2021/10/11 08:23:09;;;;;;;36.45;17.05;;;;;;;6.33;81.21;102146.91;5061894;28;20020;-57
2021/10/11 08:25:35;;;;;;;30.90;14.98;;;;;;;6.50;80.82;102149.34;5063710;28;20119;-57
2021/10/11 08:28:00;;;;;;;25.67;15.23;;;;;;;6.55;81.27;102146.94;5062640;28;20058;-57
2021/10/11 08:30:26;;;;;;;31.85;16.05;;;;;;;6.68;80.67;102155.09;5069501;28;20035;-58
2021/10/11 08:32:51;;;;;;;36.65;15.05;;;;;;;6.86;80.99;102157.34;5066548;28;20240;-57
2021/10/11 08:35:17;;;;;;;28.13;15.60;;;;;;;6.96;80.80;102152.50;5061952;28;20020;-57
2021/10/11 08:37:42;;;;;;;28.77;15.23;;;;;;;6.82;81.82;102151.56;5063509;28;20308;-57
2021/10/11 08:40:08;;;;;;;33.15;15.18;;;;;;;7.19;80.37;102155.00;5064117;28;20470;-57
2021/10/11 08:42:36;;;;;;;31.98;15.45;;;;;;;7.48;78.72;102151.34;5062140;28;20475;-57
2021/10/11 08:45:02;;;;;;;31.27;15.80;;;;;;;7.65;79.08;102142.03;5062316;28;20529;-57
2021/10/11 08:47:27;;;;;;;25.85;14.60;;;;;;;7.79;78.68;102149.09;5061723;28;20123;-57
2021/10/11 08:49:53;;;;;;;30.75;15.20;;;;;;;8.02;78.59;102150.69;5064789;28;20490;-57
2021/10/11 08:52:23;;;;;;;36.53;16.10;;;;;;;8.17;78.58;102157.53;5067488;28;20595;-56
2021/10/11 08:54:50;;;;;;;30.38;14.88;;;;;;;8.18;78.44;102158.38;5061463;28;20032;-57
2021/10/11 08:57:26;;;;;;;27.17;15.40;;;;;;;8.17;79.20;102162.88;5065489;28;20024;-56
2021/10/11 08:59:53;;;;;;;32.58;15.38;;;;;;;8.31;78.37;102162.97;5061132;28;20551;-57
2021/10/11 09:02:20;;;;;;;35.83;17.08;;;;;;;8.37;78.67;102156.84;5065101;28;20032;-55
2021/10/11 09:04:48;;;;;;;34.13;16.23;;;;;;;8.74;78.08;102161.69;5064446;28;20055;-57
2021/10/11 09:07:14;;;;;;;33.67;15.48;;;;;;;9.12;76.29;102155.81;5067636;28;20020;-57
2021/10/11 09:09:48;;;;;;;34.25;17.20;;;;;;;9.18;79.58;102152.34;5064954;28;20115;-57
2021/10/11 09:12:21;;;;;;;30.90;15.18;;;;;;;9.36;79.11;102157.91;5062149;28;20079;-57
2021/10/11 09:14:52;;;;;;;35.90;15.93;;;;;;;9.66;77.94;102152.13;5064644;28;20040;-56
2021/10/11 09:17:31;;;;;;;30.98;15.80;;;;;;;9.76;77.84;102149.84;5066993;28;20020;-57
2021/10/11 09:20:08;;;;;;;30.67;15.48;;;;;;;9.54;80.09;102157.28;5065343;28;20024;-57
2021/10/11 09:22:35;;;;;;;30.65;14.57;;;;;;;9.62;80.63;102153.56;5064156;28;20119;-56
2021/10/11 09:25:01;;;;;;;33.92;15.85;;;;;;;9.60;80.87;102155.63;5056361;28;20023;-57
2021/10/11 09:27:26;;;;;;;30.33;14.57;;;;;;;9.98;79.82;102145.88;5064703;28;20033;-57
2021/10/11 09:29:52;;;;;;;31.80;14.35;;;;;;;10.07;78.81;102148.34;5060399;28;20039;-57
2021/10/11 09:32:18;;;;;;;30.75;15.07;;;;;;;9.97;78.62;102149.59;5053959;28;20033;-57
2021/10/11 09:34:43;;;;;;;27.15;14.07;;;;;;;9.78;79.98;102155.81;5064227;28;20122;-56
2021/10/11 09:37:13;;;;;;;30.77;13.50;;;;;;;10.27;78.43;102157.16;5059313;28;20024;-54
2021/10/11 09:39:39;;;;;;;28.08;13.95;;;;;;;10.56;76.91;102155.78;5062572;28;20028;-55
2021/10/11 09:42:09;;;;;;;29.23;12.82;;;;;;;10.74;76.74;102157.78;5066087;28;20115;-57
2021/10/11 09:44:34;;;;;;;26.17;12.55;;;;;;;10.93;75.32;102156.00;5058404;28;20055;-57
2021/10/11 09:47:08;;;;;;;29.35;13.90;;;;;;;11.06;74.82;102151.38;5062500;28;20540;-57
2021/10/11 09:49:34;;;;;;;28.48;13.80;;;;;;;11.34;74.04;102150.16;5058156;28;20051;-56
2021/10/11 09:52:00;;;;;;;25.38;12.65;;;;;;;11.34;73.90;102150.97;5060504;28;20024;-57
2021/10/11 09:54:25;;;;;;;27.75;13.50;;;;;;;10.89;75.30;102158.31;5058160;28;20624;-56
2021/10/11 09:56:51;;;;;;;26.38;12.77;;;;;;;11.02;75.49;102160.09;5063816;28;20856;-57
2021/10/11 09:59:18;;;;;;;27.13;13.43;;;;;;;11.25;74.52;102146.91;5063372;28;20542;-57
2021/10/11 10:01:46;;;;;;;30.08;14.02;;;;;;;11.11;75.07;102156.91;5066782;28;20031;-57
2021/10/11 10:04:22;;;;;;;27.27;12.80;;;;;;;11.20;74.03;102150.25;5061432;28;20040;-57
2021/10/11 10:06:49;;;;;;;26.50;11.98;;;;;;;11.17;74.07;102148.00;5066360;28;20035;-57
2021/10/11 10:09:18;;;;;;;26.27;12.05;;;;;;;11.32;73.97;102144.19;5052647;28;20035;-57
2021/10/11 10:11:44;;;;;;;38.08;11.98;;;;;;;11.33;73.76;102140.47;5062238;28;20024;-57
2021/10/11 10:14:23;;;;;;;27.80;12.15;;;;;;;11.91;72.29;102140.16;5056759;28;20029;-57
2021/10/11 10:16:53;;;;;;;28.17;11.23;;;;;;;12.03;71.00;102141.06;5061995;28;20028;-57
2021/10/11 10:19:21;;;;;;;23.35;11.30;;;;;;;11.86;71.76;102137.34;5060820;28;20398;-57
2021/10/11 10:21:47;;;;;;;24.02;11.60;;;;;;;11.88;71.85;102145.97;5064641;28;20024;-56
2021/10/11 10:24:27;;;;;;;23.15;13.23;;;;;;;11.98;71.68;102138.22;5064017;28;20038;-55
2021/10/11 10:27:06;;;;;;;19.92;10.27;;;;;;;12.18;71.13;102141.50;5058300;28;20555;-57
2021/10/11 10:29:46;;;;;;;30.40;12.35;;;;;;;12.49;69.87;102140.50;5055937;28;20077;-57
2021/10/11 10:32:15;;;;;;;23.17;11.15;;;;;;;12.39;70.29;102132.16;5064339;28;20059;-55
2021/10/11 10:34:41;;;;;;;23.02;10.85;;;;;;;12.99;68.04;102127.59;5056026;28;20016;-57
2021/10/11 10:37:11;;;;;;;27.05;11.07;;;;;;;13.11;67.96;102124.13;5063318;28;20447;-58
2021/10/11 10:39:52;;;;;;;16.50;10.07;;;;;;;12.86;68.52;102133.16;5065279;28;20058;-57
2021/10/11 10:42:26;;;;;;;21.83;10.02;;;;;;;13.30;67.26;102123.00;5056967;28;20429;-57
2021/10/11 10:44:53;;;;;;;18.23;9.30;;;;;;;13.64;66.08;102123.22;5064555;28;20043;-57
2021/10/11 10:47:30;;;;;;;29.45;11.90;;;;;;;13.48;66.08;102120.19;5064037;28;20306;-57
2021/10/11 10:49:55;;;;;;;19.70;10.10;;;;;;;13.07;66.88;102123.72;5067529;28;20066;-57
2021/10/11 10:54:53;;;;;;;20.83;9.85;;;;;;;12.73;68.42;102117.19;5077888;28;20459;-51
2021/10/11 10:57:21;;;;;;;26.35;11.30;;;;;;;12.75;69.08;102117.81;5087541;28;20035;-52
2021/10/11 10:59:55;;;;;;;20.15;9.23;;;;;;;13.01;68.15;102117.41;5083379;28;20107;-50
2021/10/11 11:02:21;;;;;;;20.83;9.48;;;;;;;12.93;67.99;102115.06;5084620;28;20075;-50
2021/10/11 11:04:59;;;;;;;22.17;10.38;;;;;;;12.47;69.71;102110.34;5081607;28;20172;-50
2021/10/11 11:07:33;;;;;;;21.33;9.73;;;;;;;12.02;70.93;102110.66;5085234;28;20031;-49
2021/10/11 11:10:15;;;;;;;20.92;10.20;;;;;;;12.06;71.91;102116.44;5080460;28;20028;-49
2021/10/11 11:12:43;;;;;;;18.08;8.88;;;;;;;12.53;70.55;102113.97;5080608;28;20024;-49
2021/10/11 11:15:21;;;;;;;21.10;9.65;;;;;;;13.06;68.82;102116.72;5079992;28;20265;-49
2021/10/11 11:17:46;;;;;;;17.60;8.25;;;;;;;13.48;66.81;102098.66;5083955;28;20179;-49